createdAt,value
2018-09-27T00:00:11.049Z,5.60
2018-09-27T00:02:39.534Z,4.03
2018-09-27T00:05:07.987Z,3.43
2018-09-27T00:07:36.568Z,5.67
2018-09-27T00:10:05.070Z,4.13
2018-09-27T00:12:33.696Z,3.53
2018-09-27T00:15:02.199Z,4.07
2018-09-27T00:17:30.782Z,5.77
2018-09-27T00:19:59.298Z,3.60
2018-09-27T00:22:27.772Z,3.20
2018-09-27T00:24:56.189Z,4.50
2018-09-27T00:27:24.760Z,5.73
2018-09-27T00:29:53.201Z,4.97
2018-09-27T00:32:21.695Z,3.13
2018-09-27T00:34:50.141Z,3.63
2018-09-27T00:37:18.767Z,4.27
2018-09-27T00:39:47.250Z,4.73
2018-09-27T00:42:15.799Z,3.57
2018-09-27T00:44:44.261Z,3.33
2018-09-27T00:47:12.902Z,4.27
2018-09-27T00:49:41.342Z,4.03
2018-09-27T00:52:09.863Z,5.73
2018-09-27T00:54:38.288Z,5.03
2018-09-27T00:57:06.755Z,5.20
2018-09-27T00:59:35.243Z,4.10
2018-09-27T01:02:04.029Z,3.43
2018-09-27T01:04:32.483Z,3.97
2018-09-27T01:07:00.910Z,3.43
2018-09-27T01:09:29.495Z,5.73
2018-09-27T01:11:58.306Z,3.23
2018-09-27T01:14:26.784Z,2.80
2018-09-27T01:16:55.360Z,3.87
2018-09-27T01:19:23.863Z,4.83
2018-09-27T01:21:52.276Z,5.43
2018-09-27T01:24:20.732Z,4.83
2018-09-27T01:26:49.269Z,4.93
2018-09-27T01:29:17.759Z,2.93
2018-09-27T01:31:46.211Z,8.57
2018-09-27T01:34:14.811Z,10.27
2018-09-27T01:36:43.454Z,9.03
2018-09-27T01:39:11.920Z,5.40
2018-09-27T01:41:40.417Z,8.73
2018-09-27T01:44:08.918Z,6.83
2018-09-27T01:46:37.422Z,9.10
2018-09-27T01:49:06.102Z,6.30
2018-09-27T01:51:35.050Z,7.03
2018-09-27T01:54:03.560Z,6.90
2018-09-27T01:56:32.152Z,4.63
2018-09-27T01:59:00.612Z,4.63
2018-09-27T02:01:29.043Z,7.10
2018-09-27T02:03:57.768Z,5.33
2018-09-27T02:06:26.370Z,4.37
2018-09-27T02:08:55.187Z,4.33
2018-09-27T02:11:23.639Z,6.07
2018-09-27T02:13:52.166Z,5.00
2018-09-27T02:16:20.570Z,4.93
2018-09-27T02:18:48.986Z,5.70
2018-09-27T02:21:17.608Z,7.20
2018-09-27T02:23:46.066Z,4.67
2018-09-27T02:26:14.662Z,9.23
2018-09-27T02:28:43.184Z,4.37
2018-09-27T02:31:11.700Z,7.10
2018-09-27T02:33:40.180Z,4.70
2018-09-27T02:36:08.612Z,8.97
2018-09-27T02:38:37.116Z,5.67
2018-09-27T02:41:05.580Z,5.93
2018-09-27T02:43:34.005Z,4.33
2018-09-27T02:46:02.475Z,8.20
2018-09-27T02:48:31.223Z,3.67
2018-09-27T02:50:59.657Z,4.97
2018-09-27T02:53:28.232Z,3.53
2018-09-27T02:55:56.799Z,3.80
2018-09-27T02:58:25.394Z,5.80
2018-09-27T03:00:53.897Z,4.80
2018-09-27T03:03:22.552Z,4.83
2018-09-27T03:05:51.007Z,3.67
2018-09-27T03:08:19.527Z,4.80
2018-09-27T03:10:47.967Z,5.73
2018-09-27T03:13:16.568Z,5.03
2018-09-27T03:15:44.993Z,6.63
2018-09-27T03:18:13.423Z,6.57
2018-09-27T03:20:41.896Z,3.80
2018-09-27T03:23:10.487Z,4.30
2018-09-27T03:25:38.948Z,6.57
2018-09-27T03:28:07.536Z,4.10
2018-09-27T03:30:36.088Z,4.27
2018-09-27T03:33:04.556Z,4.30
2018-09-27T03:35:32.990Z,4.43
2018-09-27T03:38:01.417Z,5.27
2018-09-27T03:40:29.920Z,5.33
2018-09-27T03:42:58.519Z,6.27
2018-09-27T03:45:26.951Z,4.33
2018-09-27T03:47:55.540Z,4.37
2018-09-27T03:50:23.991Z,4.90
2018-09-27T03:52:52.473Z,7.17
2018-09-27T03:55:20.879Z,6.07
2018-09-27T03:57:49.410Z,3.97
2018-09-27T04:00:17.986Z,6.47
2018-09-27T04:02:46.445Z,5.50
2018-09-27T04:05:14.861Z,6.10
2018-09-27T04:07:43.286Z,6.60
2018-09-27T04:10:11.819Z,5.43
2018-09-27T04:12:40.316Z,5.67
2018-09-27T04:15:08.896Z,6.00
2018-09-27T04:17:37.429Z,3.77
2018-09-27T04:20:06.066Z,4.20
2018-09-27T04:22:34.470Z,5.57
2018-09-27T04:25:02.918Z,4.80
2018-09-27T04:27:31.346Z,3.87
2018-09-27T04:29:59.818Z,5.13
2018-09-27T04:32:28.306Z,3.60
2018-09-27T04:34:56.732Z,4.97
2018-09-27T04:37:25.165Z,5.13
2018-09-27T04:39:53.713Z,5.20
2018-09-27T04:42:22.259Z,4.43
2018-09-27T04:44:50.700Z,4.50
2018-09-27T04:47:19.114Z,4.77
2018-09-27T04:49:47.770Z,6.60
2018-09-27T04:52:16.174Z,4.60
2018-09-27T04:54:44.733Z,4.00
2018-09-27T04:57:13.186Z,4.43
2018-09-27T04:59:41.694Z,3.03
2018-09-27T05:02:10.114Z,9.83
2018-09-27T05:04:38.810Z,11.10
2018-09-27T05:07:07.230Z,15.97
2018-09-27T05:09:35.705Z,12.10
2018-09-27T05:12:04.306Z,12.50
2018-09-27T05:14:32.759Z,7.83
2018-09-27T05:17:01.272Z,13.17
2018-09-27T05:19:29.771Z,7.33
2018-09-27T05:21:58.263Z,5.50
2018-09-27T05:24:26.680Z,6.63
2018-09-27T05:26:55.168Z,12.60
2018-09-27T05:29:23.645Z,11.13
2018-09-27T05:31:52.094Z,8.57
2018-09-27T05:34:20.542Z,4.77
2018-09-27T05:36:48.994Z,7.97
2018-09-27T05:39:17.416Z,7.00
2018-09-27T05:41:45.955Z,7.03
2018-09-27T05:44:14.389Z,8.80
2018-09-27T05:46:42.817Z,5.63
2018-09-27T05:49:11.311Z,4.97
2018-09-27T05:51:39.905Z,6.63
2018-09-27T05:54:08.515Z,6.17
2018-09-27T05:56:37.155Z,9.57
2018-09-27T05:59:05.599Z,9.53
2018-09-27T06:01:34.101Z,7.00
2018-09-27T06:04:02.524Z,9.40
2018-09-27T06:06:31.212Z,7.47
2018-09-27T06:08:59.787Z,7.80
2018-09-27T06:11:28.575Z,6.70
2018-09-27T06:13:57.144Z,7.97
2018-09-27T06:16:25.643Z,4.13
2018-09-27T06:18:54.085Z,4.33
2018-09-27T06:21:22.524Z,8.70
2018-09-27T06:23:51.005Z,4.23
2018-09-27T06:26:19.548Z,13.00
2018-09-27T06:28:48.042Z,4.87
2018-09-27T06:31:16.579Z,7.53
2018-09-27T06:33:45.003Z,8.43
2018-09-27T06:36:13.482Z,7.60
2018-09-27T06:38:42.021Z,4.97
2018-09-27T06:41:10.688Z,9.40
2018-09-27T06:43:39.203Z,7.00
2018-09-27T06:46:08.130Z,3.70
2018-09-27T06:48:36.843Z,7.40
2018-09-27T06:51:05.443Z,5.73
2018-09-27T06:53:33.894Z,4.80
2018-09-27T06:56:02.443Z,9.43
2018-09-27T06:58:31.013Z,7.37
2018-09-27T07:00:59.497Z,5.97
2018-09-27T07:03:28.187Z,27.67
2018-09-27T07:05:56.712Z,8.00
2018-09-27T07:08:25.211Z,17.77
2018-09-27T07:10:53.822Z,9.10
2018-09-27T07:13:22.270Z,5.93
2018-09-27T07:15:50.688Z,10.30
2018-09-27T07:18:19.147Z,7.10
2018-09-27T07:20:47.610Z,47.73
2018-09-27T07:23:16.319Z,63.40
2018-09-27T07:25:44.815Z,22.30
2018-09-27T07:28:13.277Z,7.77
2018-09-27T07:30:41.805Z,10.17
2018-09-27T07:33:10.243Z,6.50
2018-09-27T07:35:38.898Z,9.07
2018-09-27T07:38:07.423Z,12.57
2018-09-27T07:40:36.090Z,6.40
2018-09-27T07:43:04.508Z,9.77
2018-09-27T07:45:33.021Z,7.27
2018-09-27T07:48:01.485Z,9.07
2018-09-27T07:50:30.014Z,10.67
2018-09-27T07:52:58.675Z,7.00
2018-09-27T07:55:27.208Z,6.53
2018-09-27T07:57:55.645Z,8.07
2018-09-27T08:00:24.072Z,6.27
2018-09-27T08:02:52.593Z,7.53
2018-09-27T08:05:21.123Z,9.17
2018-09-27T08:07:49.971Z,6.60
2018-09-27T08:10:18.570Z,4.57
2018-09-27T08:12:47.056Z,7.53
2018-09-27T08:15:15.506Z,8.23
2018-09-27T08:17:43.950Z,4.20
2018-09-27T08:20:12.362Z,4.07
2018-09-27T08:22:40.832Z,6.43
2018-09-27T08:25:09.257Z,6.40
2018-09-27T08:27:37.828Z,8.70
2018-09-27T08:30:07.412Z,12.30
2018-09-27T08:32:35.941Z,11.93
2018-09-27T08:35:04.970Z,11.87
2018-09-27T08:37:33.405Z,10.93
2018-09-27T08:40:01.831Z,6.87
2018-09-27T08:42:30.409Z,11.27
2018-09-27T08:44:59.025Z,9.40
2018-09-27T08:47:27.600Z,10.97
2018-09-27T08:49:56.150Z,11.47
2018-09-27T08:52:24.649Z,5.90
2018-09-27T08:54:53.158Z,16.50
2018-09-27T08:57:21.560Z,13.20
2018-09-27T08:59:49.999Z,11.33
2018-09-27T09:02:18.426Z,7.40
2018-09-27T09:04:46.890Z,11.03
2018-09-27T09:07:15.320Z,7.50
2018-09-27T09:09:43.783Z,5.77
2018-09-27T09:12:12.382Z,7.93
2018-09-27T09:14:40.979Z,5.47
2018-09-27T09:17:09.395Z,4.10
2018-09-27T09:19:37.902Z,6.53
2018-09-27T09:22:06.488Z,4.27
2018-09-27T09:24:34.903Z,5.37
2018-09-27T09:27:03.478Z,2.83
2018-09-27T09:29:31.969Z,3.87
2018-09-27T09:32:00.554Z,4.83
2018-09-27T09:34:29.000Z,5.37
2018-09-27T09:36:57.404Z,4.57
2018-09-27T09:39:25.919Z,4.57
2018-09-27T09:41:54.359Z,4.83
2018-09-27T09:44:22.879Z,4.90
2018-09-27T09:46:51.316Z,3.47
2018-09-27T09:49:19.791Z,3.00
2018-09-27T09:51:48.234Z,3.43
2018-09-27T09:54:16.692Z,2.03
2018-09-27T09:56:45.184Z,2.83
2018-09-27T09:59:13.614Z,1.47
2018-09-27T10:01:42.080Z,2.97
2018-09-27T10:04:10.527Z,2.77
2018-09-27T10:06:38.967Z,2.10
2018-09-27T10:09:08.468Z,1.40
2018-09-27T10:11:36.916Z,2.43
2018-09-27T10:14:05.310Z,2.63
2018-09-27T10:16:34.235Z,2.53
2018-09-27T10:19:02.727Z,4.37
2018-09-27T10:21:31.338Z,5.03
2018-09-27T10:23:59.973Z,3.53
2018-09-27T10:26:28.437Z,2.40
2018-09-27T10:28:57.015Z,4.77
2018-09-27T10:31:25.504Z,3.20
2018-09-27T10:33:53.941Z,2.10
2018-09-27T10:36:22.375Z,1.63
2018-09-27T10:38:50.802Z,1.30
2018-09-27T10:41:19.247Z,2.57
2018-09-27T10:43:47.652Z,3.10
2018-09-27T10:46:16.071Z,3.77
2018-09-27T10:48:44.497Z,3.70
2018-09-27T10:51:13.033Z,1.87
2018-09-27T10:53:41.634Z,2.83
2018-09-27T10:56:10.122Z,3.87
2018-09-27T10:58:38.538Z,4.17
2018-09-27T11:01:07.100Z,2.30
2018-09-27T11:03:35.596Z,2.17
2018-09-27T11:06:04.020Z,7.80
2018-09-27T11:08:32.528Z,6.37
2018-09-27T11:11:01.016Z,3.10
2018-09-27T11:13:29.680Z,3.03
2018-09-27T11:15:58.111Z,4.70
2018-09-27T11:18:26.535Z,4.80
2018-09-27T11:20:55.003Z,2.70
2018-09-27T11:23:23.446Z,3.20
2018-09-27T11:25:51.846Z,3.90
2018-09-27T11:28:20.285Z,3.00
2018-09-27T11:30:54.204Z,3.97
2018-09-27T11:33:23.083Z,1.30
2018-09-27T11:35:51.524Z,3.83
2018-09-27T11:38:19.989Z,4.70
2018-09-27T11:40:48.426Z,2.80
2018-09-27T11:43:16.875Z,5.30
2018-09-27T11:45:45.322Z,3.73
2018-09-27T11:48:14.573Z,2.27
2018-09-27T11:50:43.125Z,2.50
2018-09-27T11:53:11.589Z,1.53
2018-09-27T11:55:40.026Z,1.50
2018-09-27T11:58:08.474Z,1.90
2018-09-27T12:00:37.363Z,3.37
2018-09-27T12:03:05.968Z,3.40
2018-09-27T12:05:34.427Z,3.80
2018-09-27T12:08:02.921Z,3.60
2018-09-27T12:10:31.893Z,2.60
2018-09-27T12:13:01.160Z,3.73
2018-09-27T12:15:29.588Z,3.00
2018-09-27T12:17:58.000Z,3.85
2018-09-27T12:20:26.552Z,1.80
2018-09-27T12:22:54.955Z,2.60
2018-09-27T12:25:23.944Z,1.20
2018-09-27T12:27:53.176Z,5.42
2018-09-27T12:30:21.590Z,1.20
2018-09-27T12:32:50.646Z,1.82
2018-09-27T12:35:19.746Z,2.62
2018-09-27T12:37:48.729Z,3.65
2018-09-27T12:40:17.732Z,3.87
2018-09-27T12:42:46.812Z,3.58
2018-09-27T12:45:16.149Z,2.45
2018-09-27T12:47:45.186Z,2.62
2018-09-27T12:50:14.245Z,3.33
2018-09-27T12:52:43.371Z,2.15
2018-09-27T12:55:12.745Z,1.75
2018-09-27T12:57:42.031Z,6.58
2018-09-27T13:00:11.069Z,4.55
2018-09-27T13:02:40.275Z,3.37
2018-09-27T13:05:09.647Z,2.37
2018-09-27T13:07:38.954Z,4.42
2018-09-27T13:10:08.012Z,5.25
2018-09-27T13:12:37.270Z,3.37
2018-09-27T13:15:06.483Z,3.62
2018-09-27T13:17:35.999Z,3.42
2018-09-27T13:20:05.297Z,1.87
2018-09-27T13:22:34.340Z,4.20
2018-09-27T13:25:03.378Z,1.50
2018-09-27T13:27:32.538Z,2.87
2018-09-27T13:30:01.648Z,3.35
2018-09-27T13:32:30.921Z,4.90
2018-09-27T13:35:00.120Z,2.77
2018-09-27T13:37:29.133Z,3.72
2018-09-27T13:39:58.167Z,4.75
2018-09-27T13:42:27.330Z,18.50
2018-09-27T13:44:56.311Z,3.10
2018-09-27T13:47:25.496Z,6.83
2018-09-27T13:49:54.517Z,4.12
2018-09-27T13:52:23.702Z,3.08
2018-09-27T13:54:52.682Z,4.22
2018-09-27T13:57:21.712Z,4.70
2018-09-27T13:59:50.880Z,6.70
2018-09-27T14:02:19.884Z,2.25
2018-09-27T14:04:48.849Z,4.20
2018-09-27T14:07:17.839Z,3.52
2018-09-27T14:09:46.805Z,9.45
2018-09-27T14:12:15.813Z,5.75
2018-09-27T14:14:44.904Z,2.37
2018-09-27T14:17:14.029Z,10.25
2018-09-27T14:19:43.578Z,5.12
2018-09-27T14:22:12.551Z,4.53
2018-09-27T14:24:41.568Z,2.87
2018-09-27T14:27:10.830Z,3.62
2018-09-27T14:29:39.906Z,5.58
2018-09-27T14:32:08.876Z,2.98
2018-09-27T14:34:38.057Z,2.35
2018-09-27T14:37:07.031Z,3.20
2018-09-27T14:39:36.049Z,2.10
2018-09-27T14:42:05.101Z,17.67
2018-09-27T14:44:34.147Z,47.65
2018-09-27T14:47:03.132Z,7.30
2018-09-27T14:49:32.157Z,6.12
2018-09-27T14:52:01.225Z,4.55
2018-09-27T14:54:30.199Z,5.97
2018-09-27T14:56:59.174Z,5.90
2018-09-27T14:59:28.169Z,6.42
2018-09-27T15:01:57.335Z,3.75
2018-09-27T15:04:26.601Z,4.45
2018-09-27T15:06:55.759Z,14.00
2018-09-27T15:09:24.917Z,5.33
2018-09-27T15:11:54.131Z,14.53
2018-09-27T15:14:23.310Z,4.30
2018-09-27T15:16:52.439Z,5.95
2018-09-27T15:19:21.471Z,4.92
2018-09-27T15:21:50.513Z,5.10
2018-09-27T15:24:19.535Z,5.78
2018-09-27T15:26:48.615Z,5.60
2018-09-27T15:29:17.617Z,3.77
2018-09-27T15:31:46.648Z,4.65
2018-09-27T15:34:15.365Z,3.80
2018-09-27T15:36:44.104Z,7.58
2018-09-27T15:39:13.195Z,5.08
2018-09-27T15:41:42.253Z,6.25
2018-09-27T15:44:11.397Z,4.75
2018-09-27T15:46:40.089Z,4.00
2018-09-27T15:49:09.132Z,3.60
2018-09-27T15:51:37.822Z,7.65
2018-09-27T15:54:06.854Z,7.75
2018-09-27T15:56:35.727Z,3.52
2018-09-27T15:59:04.571Z,10.48
2018-09-27T16:01:33.369Z,7.17
2018-09-27T16:04:02.554Z,7.58
2018-09-27T16:06:31.401Z,5.55
2018-09-27T16:09:00.377Z,7.35
2018-09-27T16:11:29.372Z,7.08
2018-09-27T16:13:58.329Z,8.43
2018-09-27T16:16:27.375Z,6.83
2018-09-27T16:18:56.146Z,7.80
2018-09-27T16:21:24.610Z,10.00
2018-09-27T16:23:52.753Z,6.07
2018-09-27T16:26:21.167Z,4.60
2018-09-27T16:28:49.381Z,7.57
2018-09-27T16:31:17.710Z,5.90
2018-09-27T16:33:46.316Z,11.77
2018-09-27T16:36:14.804Z,8.07
2018-09-27T16:38:43.593Z,8.13
2018-09-27T16:41:12.194Z,5.90
2018-09-27T16:43:40.631Z,8.33
2018-09-27T16:46:09.152Z,7.10
2018-09-27T16:48:37.658Z,5.67
2018-09-27T16:51:06.179Z,20.07
2018-09-27T16:53:35.008Z,21.37
2018-09-27T16:56:03.583Z,18.27
2018-09-27T16:58:32.080Z,14.70
2018-09-27T17:01:00.591Z,9.00
2018-09-27T17:03:29.272Z,12.57
2018-09-27T17:05:57.780Z,6.10
2018-09-27T17:08:26.328Z,7.10
2018-09-27T17:10:54.856Z,9.87
2018-09-27T17:13:23.736Z,9.23
2018-09-27T17:15:52.250Z,10.60
2018-09-27T17:18:22.456Z,8.20
2018-09-27T17:20:50.996Z,6.73
2018-09-27T17:23:20.582Z,9.53
2018-09-27T17:25:49.256Z,13.27
2018-09-27T17:28:17.909Z,14.93
2018-09-27T17:30:46.444Z,25.90
2018-09-27T17:33:15.082Z,14.57
2018-09-27T17:35:44.125Z,9.70
2018-09-27T17:38:12.883Z,7.30
2018-09-27T17:40:41.553Z,14.63
2018-09-27T17:43:10.273Z,8.47
2018-09-27T17:45:38.839Z,8.53
2018-09-27T17:48:07.383Z,14.13
2018-09-27T17:50:36.035Z,8.53
2018-09-27T17:53:04.657Z,9.80
2018-09-27T17:55:33.386Z,9.83
2018-09-27T17:58:02.118Z,20.13
2018-09-27T18:00:30.754Z,26.40
2018-09-27T18:02:59.426Z,14.13
2018-09-27T18:05:27.903Z,19.30
2018-09-27T18:07:56.666Z,17.93
2018-09-27T18:10:25.282Z,13.40
2018-09-27T18:12:53.853Z,11.93
2018-09-27T18:15:22.447Z,14.43
2018-09-27T18:17:51.057Z,15.23
2018-09-27T18:20:19.532Z,16.73
2018-09-27T18:22:48.019Z,14.03
2018-09-27T18:25:16.690Z,15.27
2018-09-27T18:27:45.180Z,9.57
2018-09-27T18:30:13.678Z,9.23
2018-09-27T18:32:42.208Z,11.70
2018-09-27T18:35:10.760Z,12.40
2018-09-27T18:37:39.390Z,12.47
2018-09-27T18:40:08.426Z,31.70
2018-09-27T18:42:37.488Z,38.27
2018-09-27T18:45:06.035Z,86.87
2018-09-27T18:47:35.041Z,86.63
2018-09-27T18:50:03.753Z,92.80
2018-09-27T18:52:32.398Z,47.53
2018-09-27T18:55:00.978Z,42.63
2018-09-27T18:57:29.556Z,23.10
2018-09-27T18:59:58.374Z,30.40
2018-09-27T19:02:27.544Z,31.33
2018-09-27T19:04:55.995Z,20.93
2018-09-27T19:07:24.788Z,21.77
2018-09-27T19:09:53.550Z,25.87
2018-09-27T19:12:22.218Z,20.87
2018-09-27T19:14:51.094Z,16.33
2018-09-27T19:17:19.718Z,14.53
2018-09-27T19:19:48.287Z,12.40
2018-09-27T19:22:16.748Z,8.90
2018-09-27T19:24:45.366Z,14.53
2018-09-27T19:27:13.927Z,10.57
2018-09-27T19:29:42.441Z,18.10
2018-09-27T19:32:13.799Z,19.33
2018-09-27T19:34:42.353Z,26.30
2018-09-27T19:37:10.991Z,18.33
2018-09-27T19:39:39.534Z,20.77
2018-09-27T19:42:08.125Z,19.47
2018-09-27T19:44:36.707Z,14.37
2018-09-27T19:47:05.115Z,12.60
2018-09-27T19:49:33.781Z,12.57
2018-09-27T19:52:02.632Z,12.93
2018-09-27T19:54:31.352Z,12.63
2018-09-27T19:56:59.998Z,13.27
2018-09-27T19:59:28.622Z,10.67
2018-09-27T20:01:57.894Z,11.67
2018-09-27T20:04:26.375Z,10.70
2018-09-27T20:06:54.953Z,9.63
2018-09-27T20:09:23.440Z,8.83
2018-09-27T20:11:51.906Z,11.83
2018-09-27T20:14:20.501Z,10.93
2018-09-27T20:16:49.190Z,12.10
2018-09-27T20:19:17.880Z,11.37
2018-09-27T20:21:46.547Z,11.90
2018-09-27T20:24:15.234Z,9.87
2018-09-27T20:26:43.826Z,12.67
2018-09-27T20:29:12.540Z,10.40
2018-09-27T20:31:41.142Z,10.80
2018-09-27T20:34:09.710Z,8.60
2018-09-27T20:36:38.318Z,11.23
2018-09-27T20:39:07.076Z,12.97
2018-09-27T20:41:35.545Z,10.60
2018-09-27T20:44:03.992Z,9.17
2018-09-27T20:46:32.559Z,11.07
2018-09-27T20:49:02.940Z,11.17
2018-09-27T20:51:31.403Z,14.07
2018-09-27T20:53:59.957Z,8.90
2018-09-27T20:56:28.554Z,11.20
2018-09-27T20:58:57.091Z,10.57
2018-09-27T21:01:25.541Z,8.17
2018-09-27T21:03:53.942Z,11.43
2018-09-27T21:06:22.408Z,11.17
2018-09-27T21:08:50.999Z,11.57
2018-09-27T21:11:19.510Z,9.90
2018-09-27T21:13:47.919Z,11.73
2018-09-27T21:16:16.363Z,9.80
2018-09-27T21:18:44.959Z,17.20
2018-09-27T21:21:13.423Z,10.73
2018-09-27T21:23:41.830Z,12.43
2018-09-27T21:26:10.741Z,14.37
2018-09-27T21:28:39.243Z,9.17
2018-09-27T21:31:07.859Z,12.60
2018-09-27T21:33:36.314Z,11.53
2018-09-27T21:36:04.812Z,11.07
2018-09-27T21:38:33.206Z,11.90
2018-09-27T21:41:01.676Z,11.50
2018-09-27T21:43:30.220Z,11.67
2018-09-27T21:45:58.659Z,12.53
2018-09-27T21:48:27.151Z,13.53
2018-09-27T21:50:55.730Z,13.47
2018-09-27T21:53:24.591Z,11.13
2018-09-27T21:55:53.105Z,14.97
2018-09-27T21:58:21.613Z,10.67
2018-09-27T22:00:52.118Z,12.07
2018-09-27T22:03:21.895Z,12.53
2018-09-27T22:05:50.501Z,12.17
2018-09-27T22:08:18.911Z,12.40
2018-09-27T22:10:47.877Z,14.37
2018-09-27T22:13:16.480Z,12.57
2018-09-27T22:15:48.983Z,13.63
2018-09-27T22:18:17.469Z,11.47
2018-09-27T22:20:45.970Z,13.00
2018-09-27T22:23:14.471Z,14.93
2018-09-27T22:25:43.282Z,14.77
2018-09-27T22:28:11.818Z,9.87
2018-09-27T22:30:40.260Z,12.83
2018-09-27T22:33:08.739Z,13.33
2018-09-27T22:35:37.242Z,9.03
2018-09-27T22:38:05.740Z,11.20
2018-09-27T22:40:34.191Z,11.03
2018-09-27T22:43:02.719Z,10.30
2018-09-27T22:45:31.363Z,9.73
2018-09-27T22:47:59.867Z,11.43
2018-09-27T22:50:28.367Z,11.87
2018-09-27T22:52:56.856Z,8.97
2018-09-27T22:55:25.448Z,10.23
2018-09-27T22:57:54.011Z,11.57
2018-09-27T23:00:22.635Z,14.63
2018-09-27T23:02:51.495Z,8.87
2018-09-27T23:05:20.089Z,12.90
2018-09-27T23:07:48.533Z,11.13
2018-09-27T23:10:16.992Z,10.97
2018-09-27T23:12:45.523Z,10.23
2018-09-27T23:15:14.102Z,10.07
2018-09-27T23:17:42.712Z,7.60
2018-09-27T23:20:11.735Z,8.30
2018-09-27T23:22:40.236Z,7.90
2018-09-27T23:25:09.010Z,8.10
2018-09-27T23:27:37.494Z,8.80
2018-09-27T23:30:06.172Z,6.50
2018-09-27T23:32:34.788Z,6.10
2018-09-27T23:35:03.256Z,7.17
2018-09-27T23:37:31.768Z,5.93
2018-09-27T23:40:00.228Z,5.43
2018-09-27T23:42:28.764Z,7.23
2018-09-27T23:44:57.467Z,6.63
2018-09-27T23:47:25.940Z,5.67
2018-09-27T23:49:54.379Z,5.47
2018-09-27T23:52:22.846Z,5.67
2018-09-27T23:54:51.331Z,5.50
2018-09-27T23:57:19.931Z,5.77
2018-09-27T23:59:48.392Z,4.70
